sensor_id;sensor_type;location;lat;lon;timestamp;pressure;altitude;pressure_sealevel;temperature;humidity
62789;BME280;66401;42.016;21.454;2023-02-18T00:00:18;99256.41;;;6.25;51.55
62789;BME280;66401;42.016;21.454;2023-02-18T00:02:44;99256.41;;;6.25;51.04
62789;BME280;66401;42.016;21.454;2023-02-18T00:05:11;99255.19;;;6.29;51.41
62789;BME280;66401;42.016;21.454;2023-02-18T00:07:38;99261.97;;;6.30;51.71
62789;BME280;66401;42.016;21.454;2023-02-18T00:10:06;99257.09;;;6.17;51.26
62789;BME280;66401;42.016;21.454;2023-02-18T00:12:32;99263.63;;;6.21;51.51
62789;BME280;66401;42.016;21.454;2023-02-18T00:14:58;99247.56;;;6.27;51.63
62789;BME280;66401;42.016;21.454;2023-02-18T00:17:23;99261.56;;;6.25;51.62
62789;BME280;66401;42.016;21.454;2023-02-18T00:19:49;99253.03;;;6.15;51.33
62789;BME280;66401;42.016;21.454;2023-02-18T00:22:15;99246.63;;;6.19;51.30
62789;BME280;66401;42.016;21.454;2023-02-18T00:24:41;99251.91;;;6.27;51.09
62789;BME280;66401;42.016;21.454;2023-02-18T00:27:06;99244.84;;;6.19;51.35
62789;BME280;66401;42.016;21.454;2023-02-18T00:29:32;99236.94;;;6.21;51.20
62789;BME280;66401;42.016;21.454;2023-02-18T00:31:58;99204.84;;;6.14;49.96
62789;BME280;66401;42.016;21.454;2023-02-18T00:34:24;99235.03;;;6.23;51.01
62789;BME280;66401;42.016;21.454;2023-02-18T00:36:49;99229.19;;;6.21;50.31
62789;BME280;66401;42.016;21.454;2023-02-18T00:39:15;99228.41;;;6.11;51.06
62789;BME280;66401;42.016;21.454;2023-02-18T00:41:41;99227.44;;;6.12;50.69
62789;BME280;66401;42.016;21.454;2023-02-18T00:44:08;99223.38;;;5.99;52.39
62789;BME280;66401;42.016;21.454;2023-02-18T00:46:34;99210.31;;;6.01;51.10
62789;BME280;66401;42.016;21.454;2023-02-18T00:49:01;99215.03;;;6.15;51.07
62789;BME280;66401;42.016;21.454;2023-02-18T00:51:27;99210.84;;;6.05;51.18
62789;BME280;66401;42.016;21.454;2023-02-18T00:53:53;99204.34;;;6.00;51.83
62789;BME280;66401;42.016;21.454;2023-02-18T00:56:19;99209.22;;;6.03;51.45
62789;BME280;66401;42.016;21.454;2023-02-18T00:58:45;99212.50;;;5.96;50.95
62789;BME280;66401;42.016;21.454;2023-02-18T01:01:10;99205.38;;;5.88;50.96
62789;BME280;66401;42.016;21.454;2023-02-18T01:03:37;99210.06;;;5.94;51.18
62789;BME280;66401;42.016;21.454;2023-02-18T01:06:04;99204.72;;;5.86;51.21
62789;BME280;66401;42.016;21.454;2023-02-18T01:08:30;99192.91;;;5.93;51.63
62789;BME280;66401;42.016;21.454;2023-02-18T01:10:57;99188.03;;;5.90;51.11
62789;BME280;66401;42.016;21.454;2023-02-18T01:13:23;99190.84;;;5.87;50.80
62789;BME280;66401;42.016;21.454;2023-02-18T01:15:49;99183.66;;;5.81;51.04
62789;BME280;66401;42.016;21.454;2023-02-18T01:18:15;99186.63;;;5.86;50.44
62789;BME280;66401;42.016;21.454;2023-02-18T01:20:43;99180.13;;;5.63;51.28
62789;BME280;66401;42.016;21.454;2023-02-18T01:23:09;99170.47;;;5.65;51.52
62789;BME280;66401;42.016;21.454;2023-02-18T01:25:35;99178.75;;;5.59;51.50
62789;BME280;66401;42.016;21.454;2023-02-18T01:28:01;99168.56;;;5.57;51.61
62789;BME280;66401;42.016;21.454;2023-02-18T01:30:26;99173.34;;;5.52;51.09
62789;BME280;66401;42.016;21.454;2023-02-18T01:32:52;99168.44;;;5.59;51.00
62789;BME280;66401;42.016;21.454;2023-02-18T01:35:19;99158.25;;;5.47;51.50
62789;BME280;66401;42.016;21.454;2023-02-18T01:37:45;99161.41;;;5.41;50.87
62789;BME280;66401;42.016;21.454;2023-02-18T01:40:13;99169.53;;;5.46;52.13
62789;BME280;66401;42.016;21.454;2023-02-18T01:42:39;99172.41;;;5.53;52.38
62789;BME280;66401;42.016;21.454;2023-02-18T01:48:00;99162.75;;;5.45;50.97
62789;BME280;66401;42.016;21.454;2023-02-18T01:50:26;99165.59;;;5.42;51.41
62789;BME280;66401;42.016;21.454;2023-02-18T01:52:52;99131.22;;;5.23;51.81
62789;BME280;66401;42.016;21.454;2023-02-18T01:55:18;99163.41;;;5.38;52.40
62789;BME280;66401;42.016;21.454;2023-02-18T01:57:44;99159.19;;;5.37;51.55
62789;BME280;66401;42.016;21.454;2023-02-18T02:00:13;99158.38;;;5.36;51.26
62789;BME280;66401;42.016;21.454;2023-02-18T02:02:43;99155.66;;;5.28;51.95
62789;BME280;66401;42.016;21.454;2023-02-18T02:05:09;99164.38;;;5.27;52.29
62789;BME280;66401;42.016;21.454;2023-02-18T02:07:34;99159.50;;;5.24;52.92
62789;BME280;66401;42.016;21.454;2023-02-18T02:10:00;99149.97;;;5.15;52.49
62789;BME280;66401;42.016;21.454;2023-02-18T02:12:44;99156.75;;;5.16;51.77
62789;BME280;66401;42.016;21.454;2023-02-18T02:15:49;99162.72;;;5.07;53.18
62789;BME280;66401;42.016;21.454;2023-02-18T02:24:22;99170.06;;;5.02;53.36
62789;BME280;66401;42.016;21.454;2023-02-18T02:35:13;99180.13;;;5.05;53.37
62789;BME280;66401;42.016;21.454;2023-02-18T02:37:55;99190.97;;;4.99;52.52
62789;BME280;66401;42.016;21.454;2023-02-18T02:51:21;99202.16;;;4.59;53.42
62789;BME280;66401;42.016;21.454;2023-02-18T02:53:48;99208.22;;;4.48;53.62
62789;BME280;66401;42.016;21.454;2023-02-18T02:56:20;99207.97;;;4.51;53.94
62789;BME280;66401;42.016;21.454;2023-02-18T02:58:59;99212.91;;;4.64;53.90
62789;BME280;66401;42.016;21.454;2023-02-18T03:18:04;99208.78;;;4.21;54.48
62789;BME280;66401;42.016;21.454;2023-02-18T03:21:17;99206.53;;;4.28;53.66
62789;BME280;66401;42.016;21.454;2023-02-18T03:23:56;99200.94;;;4.02;54.49
62789;BME280;66401;42.016;21.454;2023-02-18T03:26:24;99216.19;;;4.15;53.93
62789;BME280;66401;42.016;21.454;2023-02-18T03:28:51;99207.78;;;4.13;53.81
62789;BME280;66401;42.016;21.454;2023-02-18T03:31:20;99208.47;;;4.15;54.44
62789;BME280;66401;42.016;21.454;2023-02-18T03:34:03;99205.09;;;3.72;55.08
62789;BME280;66401;42.016;21.454;2023-02-18T03:36:33;99211.81;;;3.64;55.54
62789;BME280;66401;42.016;21.454;2023-02-18T03:39:03;99217.22;;;3.82;55.45
62789;BME280;66401;42.016;21.454;2023-02-18T03:41:29;99218.81;;;3.94;55.29
62789;BME280;66401;42.016;21.454;2023-02-18T03:43:59;99221.84;;;3.99;53.85
62789;BME280;66401;42.016;21.454;2023-02-18T03:46:29;99224.16;;;4.02;54.34
62789;BME280;66401;42.016;21.454;2023-02-18T03:48:55;99241.13;;;4.05;54.69
62789;BME280;66401;42.016;21.454;2023-02-18T03:51:21;99241.44;;;4.11;54.46
62789;BME280;66401;42.016;21.454;2023-02-18T03:53:46;99253.63;;;4.09;54.90
62789;BME280;66401;42.016;21.454;2023-02-18T03:56:12;99243.75;;;3.93;54.23
62789;BME280;66401;42.016;21.454;2023-02-18T03:58:38;99255.59;;;3.96;54.56
62789;BME280;66401;42.016;21.454;2023-02-18T04:01:04;99240.81;;;3.98;55.20
62789;BME280;66401;42.016;21.454;2023-02-18T04:03:29;99249.50;;;3.97;54.68
62789;BME280;66401;42.016;21.454;2023-02-18T04:05:55;99254.59;;;4.08;54.63
62789;BME280;66401;42.016;21.454;2023-02-18T04:08:21;99258.66;;;3.90;54.93
62789;BME280;66401;42.016;21.454;2023-02-18T04:10:46;99250.00;;;3.91;55.70
62789;BME280;66401;42.016;21.454;2023-02-18T04:13:12;99252.38;;;3.83;55.83
62789;BME280;66401;42.016;21.454;2023-02-18T04:15:37;99249.38;;;3.78;55.74
62789;BME280;66401;42.016;21.454;2023-02-18T04:18:03;99245.44;;;3.62;56.36
62789;BME280;66401;42.016;21.454;2023-02-18T04:20:28;99239.38;;;3.52;55.88
62789;BME280;66401;42.016;21.454;2023-02-18T04:22:54;99269.72;;;3.81;54.74
62789;BME280;66401;42.016;21.454;2023-02-18T04:25:20;99267.56;;;3.65;56.20
62789;BME280;66401;42.016;21.454;2023-02-18T04:27:45;99262.25;;;3.66;56.01
62789;BME280;66401;42.016;21.454;2023-02-18T04:30:11;99256.00;;;3.59;57.41
62789;BME280;66401;42.016;21.454;2023-02-18T04:32:37;99248.44;;;3.35;57.93
62789;BME280;66401;42.016;21.454;2023-02-18T04:35:03;99274.38;;;3.55;56.47
62789;BME280;66401;42.016;21.454;2023-02-18T04:37:29;99266.88;;;3.63;56.65
62789;BME280;66401;42.016;21.454;2023-02-18T04:39:54;99269.81;;;3.58;57.63
62789;BME280;66401;42.016;21.454;2023-02-18T04:42:20;99267.19;;;3.69;55.29
62789;BME280;66401;42.016;21.454;2023-02-18T04:44:45;99261.78;;;3.72;55.97
62789;BME280;66401;42.016;21.454;2023-02-18T04:47:11;99268.34;;;3.77;55.65
62789;BME280;66401;42.016;21.454;2023-02-18T04:49:37;99260.63;;;3.65;54.70
62789;BME280;66401;42.016;21.454;2023-02-18T04:52:03;99262.44;;;3.54;56.64
62789;BME280;66401;42.016;21.454;2023-02-18T04:54:28;99268.19;;;3.57;55.44
62789;BME280;66401;42.016;21.454;2023-02-18T04:56:54;99271.31;;;3.61;56.70
62789;BME280;66401;42.016;21.454;2023-02-18T04:59:19;99265.41;;;3.49;56.66
62789;BME280;66401;42.016;21.454;2023-02-18T05:01:45;99270.84;;;3.56;55.22
62789;BME280;66401;42.016;21.454;2023-02-18T05:04:10;99268.38;;;3.65;55.26
62789;BME280;66401;42.016;21.454;2023-02-18T05:06:36;99278.19;;;3.71;56.49
62789;BME280;66401;42.016;21.454;2023-02-18T05:09:04;99275.88;;;3.68;55.62
62789;BME280;66401;42.016;21.454;2023-02-18T05:11:30;99269.56;;;3.61;56.40
62789;BME280;66401;42.016;21.454;2023-02-18T05:13:56;99269.81;;;3.58;56.52
62789;BME280;66401;42.016;21.454;2023-02-18T05:16:21;99268.00;;;3.70;55.84
62789;BME280;66401;42.016;21.454;2023-02-18T05:18:47;99269.09;;;3.67;55.36
62789;BME280;66401;42.016;21.454;2023-02-18T05:21:12;99269.78;;;3.69;54.26
62789;BME280;66401;42.016;21.454;2023-02-18T05:23:38;99265.34;;;3.60;55.96
62789;BME280;66401;42.016;21.454;2023-02-18T05:26:03;99264.47;;;3.50;54.83
62789;BME280;66401;42.016;21.454;2023-02-18T05:28:29;99270.44;;;3.51;55.34
62789;BME280;66401;42.016;21.454;2023-02-18T05:30:54;99267.34;;;3.57;55.55
62789;BME280;66401;42.016;21.454;2023-02-18T05:33:20;99265.63;;;3.46;55.52
62789;BME280;66401;42.016;21.454;2023-02-18T05:35:45;99274.53;;;3.42;55.65
62789;BME280;66401;42.016;21.454;2023-02-18T05:38:12;99236.44;;;3.25;56.20
62789;BME280;66401;42.016;21.454;2023-02-18T05:40:38;99262.69;;;3.51;55.83
62789;BME280;66401;42.016;21.454;2023-02-18T05:43:03;99258.38;;;3.51;55.96
62789;BME280;66401;42.016;21.454;2023-02-18T05:45:30;99251.50;;;3.40;54.80
62789;BME280;66401;42.016;21.454;2023-02-18T05:47:55;99261.19;;;3.48;55.78
62789;BME280;66401;42.016;21.454;2023-02-18T05:50:21;99255.31;;;3.46;56.81
62789;BME280;66401;42.016;21.454;2023-02-18T05:52:47;99254.50;;;3.45;55.75
62789;BME280;66401;42.016;21.454;2023-02-18T05:55:12;99257.09;;;3.45;56.74
62789;BME280;66401;42.016;21.454;2023-02-18T05:57:38;99261.63;;;3.53;55.66
62789;BME280;66401;42.016;21.454;2023-02-18T06:00:05;99268.19;;;3.57;56.23
62789;BME280;66401;42.016;21.454;2023-02-18T06:02:31;99274.25;;;3.67;54.60
62789;BME280;66401;42.016;21.454;2023-02-18T06:04:57;99268.28;;;3.67;55.33
62789;BME280;66401;42.016;21.454;2023-02-18T06:07:22;99277.00;;;3.76;55.39
62789;BME280;66401;42.016;21.454;2023-02-18T06:09:47;99275.63;;;3.71;55.69
62789;BME280;66401;42.016;21.454;2023-02-18T06:12:13;99280.59;;;3.84;54.95
62789;BME280;66401;42.016;21.454;2023-02-18T06:14:39;99286.56;;;3.85;54.90
62789;BME280;66401;42.016;21.454;2023-02-18T06:17:08;99280.16;;;4.00;54.89
62789;BME280;66401;42.016;21.454;2023-02-18T06:19:34;99278.00;;;3.84;54.53
62789;BME280;66401;42.016;21.454;2023-02-18T06:21:59;99277.16;;;3.63;55.94
62789;BME280;66401;42.016;21.454;2023-02-18T06:24:25;99285.66;;;3.74;56.01
62789;BME280;66401;42.016;21.454;2023-02-18T06:26:51;99282.28;;;3.74;56.35
62789;BME280;66401;42.016;21.454;2023-02-18T06:29:16;99292.44;;;3.76;56.15
62789;BME280;66401;42.016;21.454;2023-02-18T06:31:42;99302.47;;;3.90;56.51
62789;BME280;66401;42.016;21.454;2023-02-18T06:34:07;99303.97;;;3.92;56.04
62789;BME280;66401;42.016;21.454;2023-02-18T06:36:33;99304.56;;;3.96;55.69
62789;BME280;66401;42.016;21.454;2023-02-18T06:39:02;99305.75;;;3.92;55.60
62789;BME280;66401;42.016;21.454;2023-02-18T06:41:28;99303.50;;;3.98;55.75
62789;BME280;66401;42.016;21.454;2023-02-18T06:43:53;99307.28;;;4.15;54.82
62789;BME280;66401;42.016;21.454;2023-02-18T06:46:19;99311.25;;;4.19;55.35
62789;BME280;66401;42.016;21.454;2023-02-18T06:48:44;99302.63;;;4.30;55.41
62789;BME280;66401;42.016;21.454;2023-02-18T06:51:10;99319.28;;;4.47;54.91
62789;BME280;66401;42.016;21.454;2023-02-18T06:53:35;99316.91;;;4.55;54.59
62789;BME280;66401;42.016;21.454;2023-02-18T06:56:01;99323.44;;;4.59;54.00
62789;BME280;66401;42.016;21.454;2023-02-18T06:58:26;99326.88;;;4.69;53.33
62789;BME280;66401;42.016;21.454;2023-02-18T07:00:52;99331.94;;;4.80;54.01
62789;BME280;66401;42.016;21.454;2023-02-18T07:03:18;99329.28;;;4.92;53.89
62789;BME280;66401;42.016;21.454;2023-02-18T07:05:43;99326.19;;;4.98;54.13
62789;BME280;66401;42.016;21.454;2023-02-18T07:08:09;99329.84;;;4.95;53.45
62789;BME280;66401;42.016;21.454;2023-02-18T07:10:34;99324.31;;;5.09;53.29
62789;BME280;66401;42.016;21.454;2023-02-18T07:13:00;99338.09;;;5.20;53.98
62789;BME280;66401;42.016;21.454;2023-02-18T07:15:25;99328.56;;;5.20;54.00
62789;BME280;66401;42.016;21.454;2023-02-18T07:17:53;99325.63;;;5.34;53.39
62789;BME280;66401;42.016;21.454;2023-02-18T07:20:20;99322.38;;;5.32;53.38
62789;BME280;66401;42.016;21.454;2023-02-18T07:22:46;99327.94;;;5.37;53.67
62789;BME280;66401;42.016;21.454;2023-02-18T07:25:12;99319.69;;;5.53;52.08
62789;BME280;66401;42.016;21.454;2023-02-18T07:27:38;99327.47;;;5.72;52.75
62789;BME280;66401;42.016;21.454;2023-02-18T07:30:05;99331.16;;;5.80;51.72
62789;BME280;66401;42.016;21.454;2023-02-18T07:32:30;99329.28;;;5.91;51.70
62789;BME280;66401;42.016;21.454;2023-02-18T07:34:56;99320.03;;;5.98;51.80
62789;BME280;66401;42.016;21.454;2023-02-18T07:37:21;99324.34;;;6.27;53.05
62789;BME280;66401;42.016;21.454;2023-02-18T07:39:47;99318.59;;;6.43;52.60
62789;BME280;66401;42.016;21.454;2023-02-18T07:42:13;99311.78;;;6.51;52.07
62789;BME280;66401;42.016;21.454;2023-02-18T07:44:39;99317.69;;;6.81;51.93
62789;BME280;66401;42.016;21.454;2023-02-18T07:47:06;99320.09;;;7.47;50.39
62789;BME280;66401;42.016;21.454;2023-02-18T07:49:33;99317.22;;;8.21;47.82
62789;BME280;66401;42.016;21.454;2023-02-18T07:51:59;99314.16;;;8.70;46.45
62789;BME280;66401;42.016;21.454;2023-02-18T07:54:25;99318.13;;;9.24;44.98
62789;BME280;66401;42.016;21.454;2023-02-18T07:56:51;99324.44;;;10.13;42.84
62789;BME280;66401;42.016;21.454;2023-02-18T07:59:16;99320.38;;;10.10;42.67
62789;BME280;66401;42.016;21.454;2023-02-18T08:01:42;99315.84;;;9.96;41.85
62789;BME280;66401;42.016;21.454;2023-02-18T08:04:08;99317.28;;;9.66;41.37
62789;BME280;66401;42.016;21.454;2023-02-18T08:06:36;99309.88;;;9.37;42.46
62789;BME280;66401;42.016;21.454;2023-02-18T08:09:03;99312.91;;;9.99;42.24
62789;BME280;66401;42.016;21.454;2023-02-18T08:11:29;99317.78;;;11.06;40.20
62789;BME280;66401;42.016;21.454;2023-02-18T08:13:54;99319.47;;;11.92;38.03
62789;BME280;66401;42.016;21.454;2023-02-18T08:16:20;99310.06;;;11.83;38.90
62789;BME280;66401;42.016;21.454;2023-02-18T08:18:46;99313.66;;;12.05;38.01
62789;BME280;66401;42.016;21.454;2023-02-18T08:21:13;99310.16;;;12.13;37.27
62789;BME280;66401;42.016;21.454;2023-02-18T08:23:39;99315.50;;;13.16;35.10
62789;BME280;66401;42.016;21.454;2023-02-18T08:26:05;99297.72;;;13.62;34.64
62789;BME280;66401;42.016;21.454;2023-02-18T08:28:31;99299.03;;;13.94;33.22
62789;BME280;66401;42.016;21.454;2023-02-18T08:30:57;99299.56;;;14.60;32.68
62789;BME280;66401;42.016;21.454;2023-02-18T08:33:23;99300.28;;;15.24;30.83
62789;BME280;66401;42.016;21.454;2023-02-18T08:35:50;99303.13;;;16.43;28.75
62789;BME280;66401;42.016;21.454;2023-02-18T08:38:16;99288.53;;;16.80;27.88
62789;BME280;66401;42.016;21.454;2023-02-18T08:40:42;99298.78;;;16.95;28.44
62789;BME280;66401;42.016;21.454;2023-02-18T08:43:08;99288.88;;;17.41;27.79
62789;BME280;66401;42.016;21.454;2023-02-18T08:45:33;99269.50;;;17.61;26.48
62789;BME280;66401;42.016;21.454;2023-02-18T08:47:59;99293.97;;;19.11;24.62
62789;BME280;66401;42.016;21.454;2023-02-18T08:50:24;99293.81;;;19.96;24.25
62789;BME280;66401;42.016;21.454;2023-02-18T08:52:52;99293.97;;;21.63;22.41
62789;BME280;66401;42.016;21.454;2023-02-18T08:55:18;99279.63;;;22.26;21.75
62789;BME280;66401;42.016;21.454;2023-02-18T08:57:47;99281.09;;;20.63;23.09
62789;BME280;66401;42.016;21.454;2023-02-18T09:00:15;99281.69;;;20.30;23.27
62789;BME280;66401;42.016;21.454;2023-02-18T09:02:41;99274.25;;;20.91;22.71
62789;BME280;66401;42.016;21.454;2023-02-18T09:05:07;99269.13;;;21.69;21.93
62789;BME280;66401;42.016;21.454;2023-02-18T09:07:34;99267.09;;;20.51;22.87
62789;BME280;66401;42.016;21.454;2023-02-18T09:10:00;99242.69;;;20.02;24.42
62789;BME280;66401;42.016;21.454;2023-02-18T09:12:25;99267.41;;;20.19;24.08
62789;BME280;66401;42.016;21.454;2023-02-18T09:14:51;99269.16;;;21.01;23.60
62789;BME280;66401;42.016;21.454;2023-02-18T09:17:16;99264.03;;;22.69;21.52
62789;BME280;66401;42.016;21.454;2023-02-18T09:19:42;99253.00;;;21.54;22.70
62789;BME280;66401;42.016;21.454;2023-02-18T09:22:07;99231.44;;;21.34;23.28
62789;BME280;66401;42.016;21.454;2023-02-18T09:24:40;99252.06;;;21.20;23.46
62789;BME280;66401;42.016;21.454;2023-02-18T09:27:06;99259.72;;;23.06;21.16
62789;BME280;66401;42.016;21.454;2023-02-18T09:29:32;99251.44;;;24.16;20.22
62789;BME280;66401;42.016;21.454;2023-02-18T09:32:02;99253.34;;;25.46;19.44
62789;BME280;66401;42.016;21.454;2023-02-18T09:34:28;99242.50;;;24.90;19.63
62789;BME280;66401;42.016;21.454;2023-02-18T09:36:53;99244.72;;;24.08;20.22
62789;BME280;66401;42.016;21.454;2023-02-18T09:39:19;99240.03;;;25.86;18.66
62789;BME280;66401;42.016;21.454;2023-02-18T09:41:54;99237.66;;;25.80;18.14
62789;BME280;66401;42.016;21.454;2023-02-18T09:49:51;99214.47;;;24.77;19.58
62789;BME280;66401;42.016;21.454;2023-02-18T09:52:26;99210.69;;;25.51;18.27
62789;BME280;66401;42.016;21.454;2023-02-18T09:54:53;99205.34;;;23.73;19.75
62789;BME280;66401;42.016;21.454;2023-02-18T10:00:12;99209.06;;;25.45;19.15
62789;BME280;66401;42.016;21.454;2023-02-18T10:02:57;99203.72;;;25.45;18.21
62789;BME280;66401;42.016;21.454;2023-02-18T10:05:25;99183.88;;;24.27;20.15
62789;BME280;66401;42.016;21.454;2023-02-18T10:07:54;99179.13;;;23.87;19.71
62789;BME280;66401;42.016;21.454;2023-02-18T10:10:45;99179.72;;;25.19;18.80
62789;BME280;66401;42.016;21.454;2023-02-18T10:13:16;99182.13;;;25.92;18.26
62789;BME280;66401;42.016;21.454;2023-02-18T10:15:43;99179.06;;;24.71;19.40
62789;BME280;66401;42.016;21.454;2023-02-18T10:21:06;99168.63;;;22.84;21.43
62789;BME280;66401;42.016;21.454;2023-02-18T10:23:41;99156.50;;;21.72;22.09
62789;BME280;66401;42.016;21.454;2023-02-18T10:26:14;99163.41;;;22.07;22.24
62789;BME280;66401;42.016;21.454;2023-02-18T10:28:44;99147.38;;;19.73;24.69
62789;BME280;66401;42.016;21.454;2023-02-18T10:31:15;99146.44;;;19.56;25.08
62789;BME280;66401;42.016;21.454;2023-02-18T10:33:49;99144.69;;;20.72;23.36
62789;BME280;66401;42.016;21.454;2023-02-18T10:36:28;99141.31;;;22.67;21.62
62789;BME280;66401;42.016;21.454;2023-02-18T10:44:52;99116.78;;;25.03;20.16
62789;BME280;66401;42.016;21.454;2023-02-18T10:50:25;99111.88;;;22.46;21.56
62789;BME280;66401;42.016;21.454;2023-02-18T10:52:55;99102.56;;;21.83;21.81
62789;BME280;66401;42.016;21.454;2023-02-18T10:55:36;99095.59;;;21.77;22.20
62789;BME280;66401;42.016;21.454;2023-02-18T10:58:02;98999.50;;;21.48;22.08
62789;BME280;66401;42.016;21.454;2023-02-18T11:00:34;99073.53;;;21.71;22.99
62789;BME280;66401;42.016;21.454;2023-02-18T11:03:24;99087.69;;;21.43;22.38
62789;BME280;66401;42.016;21.454;2023-02-18T11:05:53;99077.00;;;21.94;21.93
62789;BME280;66401;42.016;21.454;2023-02-18T11:08:26;99078.75;;;21.50;22.97
62789;BME280;66401;42.016;21.454;2023-02-18T11:10:53;99058.44;;;21.38;22.52
62789;BME280;66401;42.016;21.454;2023-02-18T11:13:27;99071.25;;;23.32;21.31
62789;BME280;66401;42.016;21.454;2023-02-18T11:15:59;99060.41;;;23.76;19.65
62789;BME280;66401;42.016;21.454;2023-02-18T11:23:52;99051.75;;;25.19;18.87
62789;BME280;66401;42.016;21.454;2023-02-18T11:26:29;99044.13;;;24.30;19.08
62789;BME280;66401;42.016;21.454;2023-02-18T11:29:04;99040.22;;;24.58;18.95
62789;BME280;66401;42.016;21.454;2023-02-18T11:31:39;99029.81;;;24.51;19.58
62789;BME280;66401;42.016;21.454;2023-02-18T11:34:14;99024.28;;;23.90;19.60
62789;BME280;66401;42.016;21.454;2023-02-18T11:36:41;99024.81;;;23.92;20.51
62789;BME280;66401;42.016;21.454;2023-02-18T11:39:24;99020.53;;;23.81;19.99
62789;BME280;66401;42.016;21.454;2023-02-18T11:41:55;99022.16;;;25.00;19.27
62789;BME280;66401;42.016;21.454;2023-02-18T11:44:28;99009.88;;;25.30;18.82
62789;BME280;66401;42.016;21.454;2023-02-18T11:49:40;99007.50;;;25.03;18.46
62789;BME280;66401;42.016;21.454;2023-02-18T11:52:27;99002.13;;;25.38;18.75
62789;BME280;66401;42.016;21.454;2023-02-18T11:57:26;98988.31;;;24.65;18.75
62789;BME280;66401;42.016;21.454;2023-02-18T11:59:52;98985.13;;;24.73;18.60
62789;BME280;66401;42.016;21.454;2023-02-18T12:02:40;98972.78;;;25.44;17.51
62789;BME280;66401;42.016;21.454;2023-02-18T12:07:48;98965.84;;;24.20;18.12
62789;BME280;66401;42.016;21.454;2023-02-18T12:10:41;98965.13;;;23.62;19.85
62789;BME280;66401;42.016;21.454;2023-02-18T12:13:49;98960.13;;;22.54;19.14
62789;BME280;66401;42.016;21.454;2023-02-18T12:16:50;98948.31;;;22.40;19.92
62789;BME280;66401;42.016;21.454;2023-02-18T12:40:55;98921.16;;;20.35;23.07
62789;BME280;66401;42.016;21.454;2023-02-18T12:57:30;98893.75;;;17.85;26.43
62789;BME280;66401;42.016;21.454;2023-02-18T13:03:55;98892.09;;;17.35;26.99
62789;BME280;66401;42.016;21.454;2023-02-18T13:06:47;98889.47;;;17.17;27.90
62789;BME280;66401;42.016;21.454;2023-02-18T13:12:30;98877.53;;;17.14;26.97
62789;BME280;66401;42.016;21.454;2023-02-18T13:15:41;98878.72;;;17.00;28.50
62789;BME280;66401;42.016;21.454;2023-02-18T13:18:11;98880.69;;;17.05;28.12
62789;BME280;66401;42.016;21.454;2023-02-18T13:20:53;98874.09;;;16.96;28.40
62789;BME280;66401;42.016;21.454;2023-02-18T13:23:54;98873.97;;;16.91;28.86
62789;BME280;66401;42.016;21.454;2023-02-18T13:26:21;98873.81;;;17.04;28.78
62789;BME280;66401;42.016;21.454;2023-02-18T13:31:41;98863.75;;;17.37;29.73
62789;BME280;66401;42.016;21.454;2023-02-18T13:34:19;98860.34;;;17.67;28.88
62789;BME280;66401;42.016;21.454;2023-02-18T13:37:03;98866.25;;;17.62;29.14
62789;BME280;66401;42.016;21.454;2023-02-18T13:39:30;98865.53;;;17.37;28.34
62789;BME280;66401;42.016;21.454;2023-02-18T13:47:42;98854.50;;;16.92;30.00
62789;BME280;66401;42.016;21.454;2023-02-18T13:52:40;98858.50;;;16.51;29.64
62789;BME280;66401;42.016;21.454;2023-02-18T13:55:19;98869.75;;;16.58;30.53
62789;BME280;66401;42.016;21.454;2023-02-18T13:57:52;98863.78;;;16.51;30.41
62789;BME280;66401;42.016;21.454;2023-02-18T14:00:24;98863.69;;;16.57;31.58
62789;BME280;66401;42.016;21.454;2023-02-18T14:03:01;98859.69;;;16.55;31.47
62789;BME280;66401;42.016;21.454;2023-02-18T14:05:41;98848.09;;;16.38;30.71
62789;BME280;66401;42.016;21.454;2023-02-18T14:08:14;98859.22;;;16.08;30.47
62789;BME280;66401;42.016;21.454;2023-02-18T14:13:53;98860.22;;;16.39;31.33
62789;BME280;66401;42.016;21.454;2023-02-18T14:16:19;98848.88;;;16.38;30.07
62789;BME280;66401;42.016;21.454;2023-02-18T14:26:05;98855.91;;;15.88;30.07
62789;BME280;66401;42.016;21.454;2023-02-18T14:31:05;98836.81;;;16.30;30.61
62789;BME280;66401;42.016;21.454;2023-02-18T14:36:37;98806.09;;;15.74;29.54
62789;BME280;66401;42.016;21.454;2023-02-18T14:45:04;98834.19;;;16.06;29.23
62789;BME280;66401;42.016;21.454;2023-02-18T14:50:14;98830.81;;;15.60;30.75
62789;BME280;66401;42.016;21.454;2023-02-18T14:55:25;98817.13;;;15.45;30.20
62789;BME280;66401;42.016;21.454;2023-02-18T14:58:02;98828.09;;;15.35;30.33
62789;BME280;66401;42.016;21.454;2023-02-18T15:00:33;98819.63;;;15.27;31.42
62789;BME280;66401;42.016;21.454;2023-02-18T15:03:00;98817.38;;;15.37;31.97
62789;BME280;66401;42.016;21.454;2023-02-18T15:05:28;98819.56;;;15.46;31.79
62789;BME280;66401;42.016;21.454;2023-02-18T15:08:04;98819.16;;;15.43;31.17
62789;BME280;66401;42.016;21.454;2023-02-18T15:13:00;98820.03;;;15.30;31.36
62789;BME280;66401;42.016;21.454;2023-02-18T15:15:26;98814.41;;;15.20;31.16
62789;BME280;66401;42.016;21.454;2023-02-18T15:17:52;98812.81;;;15.12;31.62
62789;BME280;66401;42.016;21.454;2023-02-18T15:20:18;98820.53;;;15.07;31.91
62789;BME280;66401;42.016;21.454;2023-02-18T15:22:43;98816.44;;;15.11;31.86
62789;BME280;66401;42.016;21.454;2023-02-18T15:25:11;98820.09;;;15.10;32.94
62789;BME280;66401;42.016;21.454;2023-02-18T15:27:40;98827.38;;;15.08;32.17
62789;BME280;66401;42.016;21.454;2023-02-18T15:30:19;98818.91;;;15.06;32.43
62789;BME280;66401;42.016;21.454;2023-02-18T15:32:57;98805.81;;;15.00;32.47
62789;BME280;66401;42.016;21.454;2023-02-18T15:35:27;98809.03;;;14.95;32.66
62789;BME280;66401;42.016;21.454;2023-02-18T15:37:56;98817.16;;;14.87;32.17
62789;BME280;66401;42.016;21.454;2023-02-18T15:40:25;98823.84;;;14.70;34.11
62789;BME280;66401;42.016;21.454;2023-02-18T15:42:56;98813.34;;;14.70;34.14
62789;BME280;66401;42.016;21.454;2023-02-18T15:45:24;98823.25;;;14.68;33.66